Time;durP1;ratioP1;P1;durP2;ratioP2;P2;SDS_P1;SDS_P2;PMS_P1;PMS_P2;Temp;Humidity;BMP_temperature;BMP_pressure;BME280_temperature;BME280_humidity;BME280_pressure;Samples;Min_cycle;Max_cycle;Signal;HPM_P1;HPM_P2
2021/12/10 04:52:15;;;;;;;11.35;5.20;;;;;;;;;;5232823;23;20041;-92
2021/12/10 04:54:41;;;;;;;11.70;4.97;;;;;;;;;;4885081;29;20099;-90
2021/12/10 04:57:07;;;;;;;14.02;5.93;;;;;;;;;;4885930;29;20116;-89
2021/12/10 04:59:33;;;;;;;14.50;5.68;;;;;;;;;;4885249;29;20029;-93
2021/12/10 05:02:00;;;;;;;11.48;6.00;;;;;;;;;;4882448;29;20097;-93
2021/12/10 05:04:26;;;;;;;11.73;5.43;;;;;;;;;;4883671;29;20029;-92
2021/12/10 05:06:51;;;;;;;9.75;4.97;;;;;;;;;;4882378;29;20084;-92
2021/12/10 05:09:18;;;;;;;16.52;6.15;;;;;;;;;;4882915;29;20527;-92
2021/12/10 05:11:44;;;;;;;16.60;5.85;;;;;;;;;;4889759;29;20028;-91
2021/12/10 05:14:11;;;;;;;16.60;6.75;;;;;;;;;;4899066;29;20084;-91
2021/12/10 05:16:41;;;;;;;14.85;6.25;;;;;;;;;;4896865;29;20029;-90
2021/12/10 05:19:08;;;;;;;16.27;5.80;;;;;;;;;;4890195;29;20468;-93
2021/12/10 05:21:34;;;;;;;13.80;6.10;;;;;;;;;;4892394;29;20040;-91
2021/12/10 05:24:00;;;;;;;38.72;8.93;;;;;;;;;;4889882;29;20025;-93
2021/12/10 05:26:26;;;;;;;15.18;5.50;;;;;;;;;;4887291;29;20056;-89
2021/12/10 05:28:51;;;;;;;16.05;6.00;;;;;;;;;;4886372;29;20065;-93
2021/12/10 05:31:16;;;;;;;14.75;6.38;;;;;;;;;;4883958;29;20503;-92
2021/12/10 05:33:42;;;;;;;15.75;6.03;;;;;;;;;;4884835;29;20085;-93
2021/12/10 05:36:07;;;;;;;10.77;5.28;;;;;;;;;;4884017;29;20025;-92
2021/12/10 05:38:33;;;;;;;11.75;6.00;;;;;;;;;;4882786;29;20033;-95
2021/12/10 05:41:02;;;;;;;12.10;6.00;;;;;;;;;;4881412;29;20060;-94
2021/12/10 05:43:27;;;;;;;13.32;6.20;;;;;;;;;;4881362;29;20021;-93
2021/12/10 05:45:53;;;;;;;14.20;6.18;;;;;;;;;;4880800;29;20029;-93
2021/12/10 05:48:20;;;;;;;15.82;7.32;;;;;;;;;;4880891;29;20164;-93
2021/12/10 05:50:45;;;;;;;14.05;5.93;;;;;;;;;;4881081;29;20021;-92
2021/12/10 05:53:11;;;;;;;19.33;6.95;;;;;;;;;;4879460;29;20460;-92
2021/12/10 05:55:37;;;;;;;13.02;6.10;;;;;;;;;;4883991;29;20025;-93
2021/12/10 05:58:02;;;;;;;13.65;5.65;;;;;;;;;;4882801;29;20131;-94
2021/12/10 06:00:30;;;;;;;15.23;7.25;;;;;;;;;;4882157;29;20029;-94
2021/12/10 06:02:56;;;;;;;12.90;6.47;;;;;;;;;;4881239;29;20029;-94
2021/12/10 06:05:22;;;;;;;14.80;6.30;;;;;;;;;;4880596;29;20025;-94
2021/12/10 06:07:48;;;;;;;16.65;6.30;;;;;;;;;;4881117;29;20036;-94
2021/12/10 06:10:14;;;;;;;16.30;6.63;;;;;;;;;;4882985;29;20021;-93
2021/12/10 06:12:40;;;;;;;15.48;7.30;;;;;;;;;;4880102;29;20033;-93
2021/12/10 06:15:06;;;;;;;14.35;6.85;;;;;;;;;;4881532;29;20025;-94
2021/12/10 06:17:32;;;;;;;15.27;6.55;;;;;;;;;;4880783;29;20100;-95
2021/12/10 06:19:59;;;;;;;13.95;6.80;;;;;;;;;;4880840;29;20033;-94
2021/12/10 06:22:24;;;;;;;13.82;6.07;;;;;;;;;;4881989;29;20025;-92
2021/12/10 06:24:50;;;;;;;14.68;6.50;;;;;;;;;;4883430;29;20110;-92
2021/12/10 06:27:15;;;;;;;14.95;6.45;;;;;;;;;;4884511;29;20035;-94
2021/12/10 06:29:42;;;;;;;17.70;7.10;;;;;;;;;;4883116;29;20041;-94
2021/12/10 06:32:08;;;;;;;14.30;6.72;;;;;;;;;;4883359;29;20028;-92
2021/12/10 06:34:33;;;;;;;14.30;6.32;;;;;;;;;;4884516;29;20021;-92
2021/12/10 06:36:58;;;;;;;12.95;6.00;;;;;;;;;;4883591;29;20366;-93
2021/12/10 06:39:23;;;;;;;15.02;6.60;;;;;;;;;;4887675;29;20028;-91
2021/12/10 06:41:50;;;;;;;16.75;7.32;;;;;;;;;;4885972;29;20020;-92
2021/12/10 06:44:15;;;;;;;15.68;7.05;;;;;;;;;;4886337;29;20025;-93
2021/12/10 06:46:41;;;;;;;18.77;7.22;;;;;;;;;;4882723;29;20541;-93
2021/12/10 06:49:09;;;;;;;13.20;6.72;;;;;;;;;;4881059;29;20021;-93
2021/12/10 06:51:34;;;;;;;12.60;6.60;;;;;;;;;;4880516;29;20053;-95
2021/12/10 06:53:59;;;;;;;14.50;6.35;;;;;;;;;;4880444;29;20040;-96
2021/12/10 06:56:29;;;;;;;14.43;6.65;;;;;;;;;;4881140;29;20025;-94
2021/12/10 06:58:54;;;;;;;16.88;6.90;;;;;;;;;;4880910;29;20021;-95
2021/12/10 07:01:31;;;;;;;16.88;6.78;;;;;;;;;;4879961;29;20036;-94
2021/12/10 07:04:00;;;;;;;14.38;7.00;;;;;;;;;;4879971;29;20025;-95
2021/12/10 07:06:26;;;;;;;17.17;7.60;;;;;;;;;;4880657;29;20021;-94
2021/12/10 07:08:52;;;;;;;13.75;7.20;;;;;;;;;;4879079;29;20032;-95
2021/12/10 07:11:19;;;;;;;15.52;6.53;;;;;;;;;;4879639;29;20021;-95
2021/12/10 07:13:49;;;;;;;19.10;9.00;;;;;;;;;;4879747;29;20028;-96
2021/12/10 07:16:15;;;;;;;20.73;7.55;;;;;;;;;;4879466;29;20021;-95
2021/12/10 07:18:40;;;;;;;15.63;7.00;;;;;;;;;;4878881;29;20477;-95
2021/12/10 07:21:06;;;;;;;14.63;6.97;;;;;;;;;;4878838;29;20044;-90
2021/12/10 07:23:32;;;;;;;15.70;7.32;;;;;;;;;;4880000;29;20056;-94
2021/12/10 07:25:57;;;;;;;18.35;7.25;;;;;;;;;;4882362;29;20421;-96
2021/12/10 07:28:23;;;;;;;17.83;7.32;;;;;;;;;;4883965;29;20424;-95
2021/12/10 07:30:48;;;;;;;17.45;8.38;;;;;;;;;;4883437;29;20388;-94
2021/12/10 07:33:16;;;;;;;19.90;8.50;;;;;;;;;;4882418;29;20392;-94
2021/12/10 07:35:42;;;;;;;14.07;7.10;;;;;;;;;;4883081;29;20100;-95
2021/12/10 07:38:08;;;;;;;13.60;6.80;;;;;;;;;;4884677;29;20113;-93
2021/12/10 07:40:34;;;;;;;19.40;8.32;;;;;;;;;;4886331;29;20029;-93
2021/12/10 07:42:59;;;;;;;14.60;7.38;;;;;;;;;;4888487;29;20009;-93
2021/12/10 07:45:25;;;;;;;19.52;7.90;;;;;;;;;;4887418;29;20029;-92
2021/12/10 07:47:55;;;;;;;13.88;7.03;;;;;;;;;;4886652;29;20029;-92
2021/12/10 07:50:23;;;;;;;15.35;7.22;;;;;;;;;;4889748;29;20025;-93
2021/12/10 07:52:50;;;;;;;18.45;7.95;;;;;;;;;;4895484;29;20032;-92
2021/12/10 07:55:16;;;;;;;19.33;8.02;;;;;;;;;;4893402;29;20021;-92
2021/12/10 07:57:42;;;;;;;18.00;6.93;;;;;;;;;;4894508;29;20027;-96
2021/12/10 08:00:10;;;;;;;14.15;7.88;;;;;;;;;;4890277;29;20049;-94
2021/12/10 08:02:36;;;;;;;18.45;7.60;;;;;;;;;;4893198;29;20025;-93
2021/12/10 08:05:01;;;;;;;15.00;6.95;;;;;;;;;;4896639;29;20061;-92
2021/12/10 08:07:28;;;;;;;18.20;7.82;;;;;;;;;;4900120;29;20058;-89
2021/12/10 08:09:53;;;;;;;18.08;8.02;;;;;;;;;;4899283;29;20021;-91
2021/12/10 08:12:21;;;;;;;23.88;7.78;;;;;;;;;;4897085;29;20053;-92
2021/12/10 08:14:52;;;;;;;17.60;7.07;;;;;;;;;;4891266;29;20051;-92
2021/12/10 08:17:19;;;;;;;16.45;7.50;;;;;;;;;;4889441;29;20076;-94
2021/12/10 08:19:44;;;;;;;16.77;7.25;;;;;;;;;;4888608;29;20024;-94
2021/12/10 08:22:12;;;;;;;17.70;7.80;;;;;;;;;;4889788;29;20025;-93
2021/12/10 08:24:37;;;;;;;16.75;8.15;;;;;;;;;;4889733;29;20156;-93
2021/12/10 08:27:03;;;;;;;17.13;7.43;;;;;;;;;;4886814;29;20025;-93
2021/12/10 08:29:28;;;;;;;17.02;7.10;;;;;;;;;;4884701;29;20057;-94
2021/12/10 08:31:56;;;;;;;15.90;7.15;;;;;;;;;;4886535;29;20028;-91
2021/12/10 08:34:22;;;;;;;17.50;7.93;;;;;;;;;;4887206;29;20036;-94
2021/12/10 08:36:47;;;;;;;15.05;7.47;;;;;;;;;;4889363;29;20021;-94
2021/12/10 08:39:15;;;;;;;14.80;7.50;;;;;;;;;;4891192;29;20025;-94
2021/12/10 08:41:44;;;;;;;16.50;7.38;;;;;;;;;;4894158;29;20037;-93
2021/12/10 08:44:09;;;;;;;;;;;;;;;;;;4894154;29;20049;-94
2021/12/10 08:46:36;;;;;;;15.07;7.10;;;;;;;;;;4894767;29;19915;-94
2021/12/10 08:49:02;;;;;;;13.13;7.13;;;;;;;;;;4891004;29;20021;-95
2021/12/10 08:51:36;;;;;;;12.35;6.95;;;;;;;;;;5141721;23;20044;-96
2021/12/10 08:54:03;;;;;;;13.23;6.53;;;;;;;;;;5005738;23;20028;-94
2021/12/10 08:56:35;;;;;;;14.93;6.80;;;;;;;;;;4939085;28;20028;-96
2021/12/10 08:59:02;;;;;;;15.75;7.20;;;;;;;;;;5473086;23;20047;-94
2021/12/10 09:04:04;;;;;;;14.63;7.05;;;;;;;;;;5883905;23;20129;-94
2021/12/10 09:06:33;;;;;;;13.88;7.07;;;;;;;;;;5009639;23;20049;-95
2021/12/10 09:16:45;;;;;;;13.50;6.53;;;;;;;;;;5388599;23;20120;-95
2021/12/10 09:19:14;;;;;;;16.23;7.70;;;;;;;;;;4898387;29;20029;-96
2021/12/10 09:21:40;;;;;;;13.82;7.18;;;;;;;;;;4903068;29;20020;-96
2021/12/10 09:24:07;;;;;;;15.32;6.90;;;;;;;;;;5312320;23;21314;-94
2021/12/10 09:26:38;;;;;;;13.95;7.63;;;;;;;;;;4888169;29;20076;-95
2021/12/10 09:29:06;;;;;;;12.00;6.68;;;;;;;;;;4885799;29;20445;-96
2021/12/10 09:31:31;;;;;;;12.52;6.70;;;;;;;;;;4888474;29;20028;-95
2021/12/10 09:33:58;;;;;;;13.88;7.15;;;;;;;;;;4893784;29;20025;-96
2021/12/10 09:36:25;;;;;;;12.38;6.40;;;;;;;;;;4894154;29;20021;-96
2021/12/10 09:38:51;;;;;;;14.32;7.38;;;;;;;;;;4896029;29;20025;-93
2021/12/10 09:41:26;;;;;;;14.05;5.57;;;;;;;;;;4902568;29;20043;-96
2021/12/10 09:43:54;;;;;;;11.80;6.32;;;;;;;;;;4904340;29;20020;-96
2021/12/10 09:46:28;;;;;;;15.95;7.68;;;;;;;;;;4903329;29;20056;-96
2021/12/10 09:48:58;;;;;;;12.82;6.80;;;;;;;;;;4903582;29;20040;-96
2021/12/10 09:51:23;;;;;;;;;;;;;;;;;;4903508;29;20027;-96
2021/12/10 10:48:11;;;;;;;11.68;6.57;;;;;;;;;;5576625;23;20066;-95
2021/12/10 10:50:48;;;;;;;11.20;5.93;;;;;;;;;;4900440;29;20053;-96
2021/12/10 20:36:03;;;;;;;33.90;16.45;;;;;;;;;;5547573;23;20041;-84
2021/12/10 20:38:31;;;;;;;46.03;19.02;;;;;;;;;;4886150;29;20040;-85
2021/12/10 20:41:05;;;;;;;28.75;14.95;;;;;;;;;;4887634;29;20017;-84
2021/12/10 20:43:38;;;;;;;25.52;13.15;;;;;;;;;;4887241;29;20026;-85
2021/12/10 20:46:11;;;;;;;40.22;16.55;;;;;;;;;;4935008;23;20015;-85
2021/12/10 20:48:42;;;;;;;36.47;16.80;;;;;;;;;;4905800;29;20037;-84
2021/12/10 20:51:21;;;;;;;40.00;17.10;;;;;;;;;;4905695;29;20005;-84
2021/12/10 20:53:51;;;;;;;43.72;18.35;;;;;;;;;;4905514;29;20006;-86
2021/12/10 20:56:19;;;;;;;31.02;15.77;;;;;;;;;;4905252;29;20038;-85
2021/12/10 20:58:51;;;;;;;39.10;15.93;;;;;;;;;;4905829;29;20035;-84
2021/12/10 21:01:24;;;;;;;36.63;16.30;;;;;;;;;;4903172;29;20032;-84
2021/12/10 21:03:56;;;;;;;31.00;14.88;;;;;;;;;;4900941;29;20036;-84
2021/12/10 21:06:32;;;;;;;27.38;14.70;;;;;;;;;;4903231;29;20113;-84
2021/12/10 21:09:07;;;;;;;27.23;14.48;;;;;;;;;;4904270;29;20025;-85
2021/12/10 21:58:06;;;;;;;44.00;18.80;;;;;;;;;;5381148;23;20077;-84
2021/12/10 22:00:43;;;;;;;37.03;17.02;;;;;;;;;;4903058;29;20081;-84
2021/12/10 22:03:22;;;;;;;34.67;16.25;;;;;;;;;;4901515;29;20052;-85
